Hays Regional Airport Hays US
ICAO: KHYS
IATA: HYS
Category: Medium
Scheduled Services: No

Elevation: 1999 ft
TransAlt. 18000 ft.

Airport Communications:
AWOS 3:125.525
KANSAS CITY CNTR:124.4
WICHITA RDO:122.3
CTAF/UNICOM:122.8

KHYS Zoom In..

Runways:

(A) RW 04 length 4501 ft width 75 ft
---- / hdg 40

(B) RW 16 length 6501 ft width 100 ft
---- / hdg 159

(C) RW 22 length 4501 ft width 75 ft
---- / hdg 220

(D) RW 34 length 6501 ft width 100 ft
ILS 111.50 / hdg 339

Location; KHYS
Day. 21 / Time. 05.56 Zulu
* Altimeter: 30.04
* Temperature: 23° c. 73.4°f.
* Wind from: 130° Speed 06 kn.
Dewpoint: 19° c.
Visibility: 10 Statute Miles.
Clouds: Clear (automated report).

KHYS 210556Z AUTO 13006KT 10SM CLR 23/19 A3004 RMK AO2 PK WND 18027/0514 SLP153 T02280189 10322 20228 403440217 50017


Wind From 130°
Speed 06 kn.

 
 
jpsmedia.com for Web Design worldairports.se 2018   terms of use